Data for 08/10/2005

Time Sea-Level Adjusted Pressure Absolute Pressure Temperature Relative Humidity Dew Point   
(mb) (inHg) (mb) (inHg) (C) (F) (%) (C) (F)
00:05 1021 30.15 850 25.1 14.7 58.5 79 11.1 52
00:10 1021 30.15 850 25.1 14.8 58.6 77 10.8 51.4
00:15 1021 30.15 850 25.1 14.9 58.7 77 11 51.7
00:20 1021 30.15 850 25.1 14.7 58.5 79 11.1 52
00:25 1021 30.15 850 25.1 14.6 58.2 78 10.9 51.5
00:30 1021 30.15 850 25.1 14.5 58 82 11.5 52.6
00:35 1021 30.15 850 25.1 14.5 58 79 10.9 51.5
00:40 1021 30.15 850 25.1 14.6 58.2 78 10.8 51.4
00:45 1021 30.15 850 25.1 14.4 58 79 10.9 51.6
00:50 1020 30.12 850 25.1 14.2 57.5 80 10.8 51.5
00:55 1020 30.12 850 25.1 14.1 57.4 79 10.6 51
01:00 1020 30.12 850 25.1 14.6 58.3 76 10.4 50.7
01:05 1020 30.12 850 25.1 15 59 75 10.6 51.1
01:10 1020 30.12 850 25.1 14.7 58.4 77 10.7 51.3
01:15 1020 30.12 850 25.1 14.7 58.5 76 10.5 50.9
01:20 1020 30.12 850 25.1 14.8 58.6 76 10.6 51
01:25 1020 30.12 850 25.1 14.8 58.7 75 10.4 50.7
01:30 1020 30.12 850 25.1 15 58.9 75 10.6 51.1
01:35 1021 30.15 850 25.1 14.8 58.7 76 10.6 51.1
01:40 1021 30.15 850 25.1 14.6 58.3 77 10.7 51.2
01:45 1021 30.15 850 25.1 14.5 58 77 10.5 51
01:50 1021 30.15 850 25.1 14.5 58 77 10.5 51
01:55 1021 30.15 850 25.1 14.3 57.8 78 10.6 51
02:00 1020 30.12 850 25.1 14.2 57.5 79 10.6 51.1
02:05 1020 30.12 850 25.1 14 57.2 80 10.6 51.1
02:10 1020 30.12 850 25.1 13.8 56.9 80 10.6 51
02:15 1020 30.12 850 25.1 13.6 56.5 80 10.3 50.6
02:20 1021 30.15 850 25.1 13.5 56.3 81 10.4 50.7
02:25 1021 30.15 850 25.1 13.5 56.2 79 10 50
02:30 1021 30.15 850 25.1 13.6 56.5 79 10.1 50.1
02:35 1021 30.15 850 25.1 13.8 56.8 78 10 50.1
02:40 1021 30.15 850 25.1 14.1 57.4 76 9.9 49.9
02:45 1021 30.15 851 25.13 14.3 57.8 75 10 50
02:50 1022 30.18 851 25.13 14.3 57.8 77 10.3 50.5
02:55 1022 30.18 852 25.16 13.8 56.8 78 10 49.9
03:00 1023 30.21 852 25.16 13.6 56.5 77 9.7 49.4
03:05 1022 30.18 852 25.16 13.9 57 76 9.8 49.6
03:10 1022 30.18 852 25.16 13.9 57 81 10.7 51.2
03:15 1022 30.18 851 25.13 13.1 55.6 84 10.5 50.9
03:20 1022 30.18 851 25.13 12.9 55.2 85 10.4 50.7
03:25 1022 30.18 851 25.13 13.1 55.7 84 10.5 50.9
03:30 1021 30.15 851 25.13 13.4 56.1 83 10.6 51
03:35 1020 30.12 850 25.1 13.6 56.4 83 10.7 51.3
03:40 1021 30.15 850 25.1 13.4 56.2 85 10.9 51.6
03:45 1021 30.15 851 25.13 13.4 56.1 80 10 50.1
03:50 1021 30.15 851 25.13 13.8 56.9 79 10.3 50.6
03:55 1021 30.15 850 25.1 14.2 57.5 76 10.1 50.2
04:00 1021 30.15 850 25.1 15.1 59.1 67 9.1 48.4
04:05 1021 30.15 850 25.1 15.9 60.7 67 10 50
04:10 1021 30.15 850 25.1 15.8 60.4 75 11.4 52.4
04:15 1021 30.15 850 25.1 14.4 58 79 10.9 51.6
04:20 1021 30.15 850 25.1 14 57.2 80 10.6 51
04:25 1021 30.15 850 25.1 13.7 56.6 83 10.8 51.5
04:30 1021 30.15 850 25.1 13.3 55.9 81 10.1 50.3
04:35 1021 30.15 850 25.1 13.7 56.7 79 10.2 50.4
04:40 1020 30.12 850 25.1 13.8 56.8 81 10.6 51
04:45 1020 30.12 850 25.1 13.5 56.2 83 10.6 51
04:50 1020 30.12 850 25.1 13.3 56 81 10.1 50.2
04:55 1020 30.12 850 25.1 13.5 56.4 80 10.1 50.2
05:00 1020 30.12 850 25.1 13.5 56.3 79 9.9 49.9
05:05 1020 30.12 850 25.1 13.6 56.4 80 10.1 50.2
05:10 1020 30.12 850 25.1 13.5 56.4 79 10 49.9
05:15 1020 30.12 850 25.1 13.5 56.3 80 10.2 50.4
05:20 1020 30.12 850 25.1 13.3 55.9 81 10.2 50.4
05:25 1020 30.12 850 25.1 13.3 55.9 80 10 49.9
05:30 1020 30.12 850 25.1 13.5 56.3 79 10 50
05:35 1021 30.15 850 25.1 13.6 56.4 78 9.9 49.8
05:40 1021 30.15 850 25.1 13.6 56.5 79 10 50
05:45 1021 30.15 850 25.1 13.6 56.4 78 9.9 49.7
05:50 1021 30.15 850 25.1 13.6 56.5 78 9.8 49.7
05:55 1021 30.15 850 25.1 13.7 56.7 77 9.7 49.5
06:00 1021 30.15 850 25.1 13.8 56.8 77 9.9 49.8
06:05 1021 30.15 850 25.1 13.5 56.3 78 9.9 49.8
06:10 1021 30.15 850 25.1 13.3 55.9 81 10.2 50.3
06:15 1021 30.15 850 25.1 12.7 54.9 85 10.3 50.5
06:20 1021 30.15 850 25.1 12.2 53.9 87 10.2 50.3
06:25 1021 30.15 850 25.1 12 53.6 88 10.2 50.3
06:30 1021 30.15 850 25.1 11.9 53.5 89 10.1 50.3
06:35 1021 30.15 850 25.1 11.8 53.2 90 10.2 50.4
06:40 1021 30.15 851 25.13 11.7 53.1 90 10.1 50.3
06:45 1021 30.15 851 25.13 11.7 53.1 90 10.2 50.4
06:50 1021 30.15 851 25.13 11.8 53.3 90 10.2 50.4
06:55 1021 30.15 851 25.13 11.7 53 91 10.3 50.5
07:00 1021 30.15 851 25.13 11.6 52.8 91 10.2 50.3
07:05 1021 30.15 851 25.13 11.7 53 90 10.1 50.1
07:10 1021 30.15 850 25.1 11.9 53.5 89 10.2 50.4
07:15 1021 30.15 850 25.1 12.1 53.8 89 10.4 50.6
07:20 1021 30.15 850 25.1 12.1 53.9 88 10.2 50.4
07:25 1021 30.15 850 25.1 12.3 54.2 87 10.2 50.4
07:30 1021 30.15 850 25.1 12.4 54.4 87 10.3 50.5
07:35 1021 30.15 850 25.1 12.6 54.7 86 10.4 50.7
07:40 1021 30.15 850 25.1 12.9 55.2 82 10 49.9
07:45 1021 30.15 850 25.1 13.4 56.1 80 10 50
07:50 1021 30.15 850 25.1 13.8 56.8 78 10.1 50.2
07:55 1021 30.15 850 25.1 14.4 57.9 77 10.3 50.6
08:00 1021 30.15 850 25.1 14.5 58.1 77 10.6 51.1
08:05 1021 30.15 850 25.1 14.6 58.3 76 10.4 50.8
08:10 1021 30.15 850 25.1 14.8 58.6 76 10.5 51
08:15 1021 30.15 850 25.1 14.9 58.8 75 10.6 51.1
08:20 1021 30.15 850 25.1 15.1 59.1 75 10.7 51.3
08:25 1020 30.12 850 25.1 15.2 59.3 76 11 51.8
08:30 1020 30.12 850 25.1 15.2 59.4 75 10.9 51.6
08:35 1021 30.15 850 25.1 15.3 59.5 75 11 51.8
08:40 1021 30.15 850 25.1 15.4 59.7 75 11.1 52
08:45 1022 30.18 851 25.13 15.6 60.1 74 11.1 52
08:50 1022 30.18 851 25.13 14.7 58.4 83 11.8 53.2
08:55 1022 30.18 851 25.13 14.3 57.7 82 11.3 52.4
09:00 1022 30.18 851 25.13 14.4 57.8 80 11 51.8
09:05 1022 30.18 851 25.13 14.7 58.5 77 10.8 51.4
09:10 1022 30.18 851 25.13 15.3 59.6 73 10.6 51.2
09:15 1022 30.18 851 25.13 16 60.8 72 10.9 51.7
09:20 1022 30.18 852 25.16 16.6 61.9 68 10.8 51.5
09:25 1022 30.18 852 25.16 17.1 62.7 67 11 51.8
09:30 1023 30.21 852 25.16 17.5 63.4 65 11 51.8
09:35 1023 30.21 852 25.16 17.9 64.2 62 10.7 51.2
09:40 1023 30.21 852 25.16 18.5 65.2 62 11.1 51.9
09:45 1023 30.21 852 25.16 19 66.2 60 11.2 52.2
09:50 1023 30.21 852 25.16 18.8 65.8 62 11.5 52.8
09:55 1023 30.21 852 25.16 17.9 64.2 63 10.9 51.6
10:00 1023 30.21 852 25.16 17.3 63.2 65 10.8 51.5
10:05 1023 30.21 852 25.16 17.6 63.6 64 10.9 51.6
10:10 1022 30.18 852 25.16 17.4 63.4 65 10.8 51.4
10:15 1022 30.18 852 25.16 17.6 63.7 63 10.6 51.1
10:20 1023 30.21 852 25.16 17.8 64 67 11.6 53
10:25 1023 30.21 852 25.16 17.9 64.2 66 11.7 53
10:30 1023 30.21 852 25.16 17.8 64.1 65 11.2 52.2
10:35 1023 30.21 852 25.16 18 64.4 67 11.9 53.4
10:40 1023 30.21 852 25.16 18.1 64.5 64 11.2 52.2
10:45 1023 30.21 852 25.16 18.2 64.8 64 11.4 52.5
10:50 1023 30.21 852 25.16 18.7 65.7 60 10.8 51.5
10:55 1023 30.21 852 25.16 19.1 66.4 58 10.8 51.5
11:00 1023 30.21 852 25.16 18.9 66 61 11.4 52.5
11:05 1023 30.21 852 25.16 19 66.2 60 11.2 52.1
11:10 1023 30.21 852 25.16 19.1 66.4 59 11.1 52
11:15 1023 30.21 852 25.16 19.8 67.7 59 11.7 53
11:20 1022 30.18 852 25.16 19.2 66.5 58 10.9 51.6
11:25 1022 30.18 852 25.16 19.5 67 57 10.8 51.4
11:30 1022 30.18 852 25.16 20.7 69.2 51 10.2 50.4
11:35 1022 30.18 852 25.16 21.4 70.5 49 10.3 50.5
11:40 1022 30.18 852 25.16 21.7 71 49 10.6 51
11:45 1022 30.18 852 25.16 22.2 71.9 46 10.3 50.5
11:50 1022 30.18 852 25.16 22.3 72.1 50 11.6 52.9
11:55 1022 30.18 851 25.13 21.9 71.4 49 10.8 51.4
12:00 1022 30.18 851 25.13 21.7 71 49 10.6 51
12:05 1022 30.18 851 25.13 21.7 71 51 11.2 52.2
12:10 1022 30.18 851 25.13 21.5 70.8 50 10.9 51.6
12:15 1022 30.18 851 25.13 21.4 70.5 52 11.2 52.2
12:20 1022 30.18 851 25.13 20.8 69.5 53 11 51.8
12:25 1022 30.18 851 25.13 20.1 68.2 56 11.2 52.1
12:30 1022 30.18 851 25.13 19.9 67.8 55 10.8 51.4
12:35 1022 30.18 851 25.13 19.7 67.4 58 11.2 52.2
12:40 1021 30.15 851 25.13 19.3 66.8 60 11.4 52.5
12:45 1021 30.15 851 25.13 19.2 66.5 65 12.6 54.7
12:50 1022 30.18 851 25.13 19.2 66.5 62 11.7 53.1
12:55 1021 30.15 851 25.13 19.2 66.5 62 11.7 53
13:00 1021 30.15 851 25.13 19.6 67.2 59 11.4 52.5
13:05 1021 30.15 851 25.13 20.1 68.2 57 11.5 52.6
13:10 1021 30.15 851 25.13 20.4 68.7 57 11.6 52.9
13:15 1022 30.18 851 25.13 20.1 68.1 58 11.6 52.8
13:20 1022 30.18 851 25.13 20.2 68.3 55 11.1 52
13:25 1022 30.18 851 25.13 20.6 69 54 11 51.8
13:30 1022 30.18 851 25.13 21.1 70 51 10.6 51.2
13:35 1022 30.18 851 25.13 21.4 70.4 52 11.3 52.4
13:40 1022 30.18 851 25.13 21.6 70.9 52 11.4 52.5
13:45 1022 30.18 851 25.13 21.9 71.4 52 11.6 53
13:50 1022 30.18 851 25.13 21.3 70.3 54 11.7 53.1
13:55 1022 30.18 851 25.13 20.8 69.4 54 11.4 52.5
14:00 1022 30.18 851 25.13 20.8 69.5 53 11 51.9
14:05 1022 30.18 851 25.13 20.8 69.4 55 11.6 52.9
14:10 1022 30.18 851 25.13 20.8 69.4 54 11.4 52.4
14:15 1022 30.18 851 25.13 21.2 70.1 53 11.3 52.4
14:20 1021 30.15 851 25.13 21.3 70.3 55 11.9 53.5
14:25 1021 30.15 851 25.13 21.2 70.2 55 11.9 53.5
14:30 1021 30.15 851 25.13 21.3 70.3 54 11.8 53.3
14:35 1021 30.15 850 25.1 21.2 70.2 55 12.1 53.8
14:40 1021 30.15 850 25.1 21 69.9 57 12.3 54.1
14:45 1021 30.15 850 25.1 21.2 70.1 58 12.7 54.8
14:50 1021 30.15 850 25.1 21.5 70.7 55 12.2 54
14:55 1021 30.15 850 25.1 21.8 71.2 52 11.7 53.1
15:00 1021 30.15 850 25.1 22.3 72.1 51 11.9 53.4
15:05 1021 30.15 850 25.1 22.6 72.6 49 11.4 52.5
15:10 1021 30.15 850 25.1 23 73.4 48 11.5 52.6
15:15 1021 30.15 850 25.1 23.5 74.3 44 10.9 51.5
15:20 1020 30.12 850 25.1 23.6 74.4 46 11.4 52.5
15:25 1020 30.12 849 25.07 23.3 74 46 11.2 52.2
15:30 1020 30.12 849 25.07 23.4 74.2 47 11.6 52.9
15:35 1020 30.12 849 25.07 23.4 74 47 11.6 52.8
15:40 1020 30.12 849 25.07 24 75.2 44 11.1 52
15:45 1020 30.12 849 25.07 23.9 75 42 10.5 50.8
15:50 1019 30.09 849 25.07 24 75.2 35 7.9 46.3
15:55 1019 30.09 849 25.07 24.4 75.9 37 8.8 47.8
16:00 1019 30.09 848 25.04 24.9 76.9 35 8.7 47.7
16:05 1019 30.09 848 25.04 24.8 76.6 35 8.5 47.3
16:10 1019 30.09 848 25.04 24.5 76.1 33 7.4 45.2
16:15 1019 30.09 848 25.04 24.8 76.7 31 7 44.5
16:20 1019 30.09 848 25.04 25.8 78.5 26 5 41
16:25 1019 30.09 848 25.04 25.9 78.6 27 5.8 42.5
16:30 1019 30.09 848 25.04 26.2 79.2 27 5.9 42.7
16:35 1019 30.09 848 25.04 26.2 79.1 27 6.1 42.9
16:40 1019 30.09 848 25.04 26.3 79.3 26 5.6 42.1
16:45 1019 30.09 848 25.04 26.6 79.8 25 5.1 41.1
16:50 1019 30.09 848 25.04 26.9 80.4 25 5.4 41.7
16:55 1019 30.09 848 25.04 26.7 80 27 6.3 43.4
17:00 1019 30.09 848 25.04 26 78.8 27 5.8 42.4
17:05 1019 30.09 848 25.04 26.1 79 26 5.5 41.8
17:10 1019 30.09 848 25.04 26.6 79.8 26 5.5 41.9
17:15 1019 30.09 848 25.04 27.4 81.3 26 6.2 43.2
17:20 1019 30.09 848 25.04 27.8 82 25 6.3 43.3
17:25 1019 30.09 848 25.04 27.9 82.3 24 5.9 42.7
17:30 1019 30.09 848 25.04 28 82.4 25 6.2 43.2
17:35 1019 30.09 848 25.04 27.4 81.3 26 6.6 44
17:40 1019 30.09 848 25.04 26.2 79.1 27 6 42.9
17:45 1019 30.09 848 25.04 25.8 78.4 28 6.3 43.3
17:50 1019 30.09 848 25.04 25.9 78.6 26 5.2 41.4
17:55 1019 30.09 848 25.04 25.5 78 29 6.3 43.4
18:00 1019 30.09 848 25.04 25 77 29 6.1 43
18:05 1019 30.09 848 25.04 24.7 76.4 30 6.2 43.1
18:10 1019 30.09 848 25.04 24.3 75.7 31 6.5 43.7
18:15 1019 30.09 848 25.04 24.1 75.4 32 6.6 43.9
18:20 1019 30.09 848 25.04 23.9 75 33 7.1 44.7
18:25 1019 30.09 848 25.04 23.6 74.4 34 7.2 44.9
18:30 1019 30.09 848 25.04 23.3 74 36 7.5 45.5
18:35 1019 30.09 849 25.07 23.2 73.8 38 8.3 47
18:40 1020 30.12 849 25.07 23.1 73.5 43 9.9 49.8
18:45 1020 30.12 849 25.07 21.9 71.5 48 10.7 51.3
18:50 1020 30.12 849 25.07 19.1 66.5 50 8.7 47.6
18:55 1020 30.12 849 25.07 18.5 65.3 56 9.6 49.3
19:00 1020 30.12 849 25.07 17.7 63.9 66 11.4 52.5
19:05 1019 30.09 849 25.07 16.5 61.7 69 10.8 51.5
19:10 1019 30.09 848 25.04 16.5 61.6 71 11.2 52.2
19:15 1019 30.09 848 25.04 16.5 61.7 65 10.1 50.2
19:20 1019 30.09 848 25.04 17.3 63.1 58 9.1 48.4
19:25 1019 30.09 849 25.07 18.4 65.2 60 10.6 51
19:30 1019 30.09 848 25.04 17.5 63.5 64 10.8 51.4
19:35 1019 30.09 848 25.04 17 62.6 65 10.5 50.9
19:40 1019 30.09 848 25.04 17.2 63 63 10.2 50.4
19:45 1019 30.09 848 25.04 17.4 63.3 64 10.5 50.9
19:50 1019 30.09 848 25.04 17.4 63.3 64 10.6 51
19:55 1019 30.09 848 25.04 17.5 63.5 64 10.6 51.1
20:00 1019 30.09 848 25.04 17.8 64 61 10.2 50.4
20:05 1019 30.09 849 25.07 18 64.3 60 10.2 50.4
20:10 1019 30.09 849 25.07 18 64.3 62 10.5 51
20:15 1020 30.12 849 25.07 18 64.3 59 9.9 49.9
20:20 1019 30.09 849 25.07 18.3 65 56 9.5 49
20:25 1020 30.12 849 25.07 18.5 65.2 57 10 50
20:30 1020 30.12 849 25.07 18.4 65.1 58 10.1 50.3
20:35 1020 30.12 849 25.07 18.3 65 57 9.8 49.7
20:40 1020 30.12 849 25.07 18.4 65.1 54 9 48.2
20:45 1020 30.12 849 25.07 18.5 65.4 53 8.8 47.9
20:50 1020 30.12 849 25.07 18.5 65.4 54 9.1 48.4
20:55 1020 30.12 849 25.07 18.4 65.1 54 9 48.2
21:00 1020 30.12 849 25.07 18.4 65.1 53 8.8 47.9
21:05 1020 30.12 849 25.07 18.4 65.1 53 8.8 47.9
21:10 1020 30.12 849 25.07 18.4 65.1 52 8.6 47.5
21:15 1020 30.12 849 25.07 18.3 64.9 53 8.8 47.8
21:20 1020 30.12 849 25.07 18.1 64.6 54 8.9 48
21:25 1020 30.12 849 25.07 18 64.3 53 8.4 47.2
21:30 1020 30.12 849 25.07 18.1 64.5 54 8.7 47.6
21:35 1020 30.12 849 25.07 18 64.4 53 8.5 47.3
21:40 1020 30.12 849 25.07 18.1 64.6 53 8.4 47.1
21:45 1020 30.12 849 25.07 18.1 64.6 53 8.5 47.4
21:50 1020 30.12 849 25.07 17.9 64.2 53 8.4 47.1
21:55 1020 30.12 849 25.07 17.9 64.1 54 8.5 47.3
22:00 1020 30.12 849 25.07 17.7 63.8 55 8.7 47.6
22:05 1020 30.12 850 25.1 17.5 63.5 56 8.6 47.5
22:10 1020 30.12 850 25.1 17.5 63.4 55 8.3 47
22:15 1020 30.12 850 25.1 17.5 63.4 55 8.5 47.3
22:20 1020 30.12 850 25.1 17.3 63.2 56 8.5 47.4
22:25 1020 30.12 850 25.1 17.3 63.1 57 8.7 47.6
22:30 1020 30.12 850 25.1 17.1 62.9 57 8.7 47.6
22:35 1020 30.12 850 25.1 17.2 62.9 57 8.7 47.7
22:40 1021 30.15 850 25.1 17.1 62.8 57 8.7 47.6
22:45 1021 30.15 850 25.1 17 62.7 58 8.8 47.8
22:50 1021 30.15 850 25.1 17 62.5 59 8.9 48
22:55 1021 30.15 850 25.1 16.9 62.3 59 8.8 47.9
23:00 1021 30.15 850 25.1 16.8 62.2 59 8.8 47.8
23:05 1021 30.15 850 25.1 16.9 62.4 57 8.4 47.2
23:10 1021 30.15 850 25.1 16.9 62.5 57 8.5 47.3
23:15 1021 30.15 850 25.1 16.8 62.3 58 8.6 47.4
23:20 1021 30.15 850 25.1 16.7 62.1 58 8.4 47.2
23:25 1021 30.15 850 25.1 16.7 62.1 57 8.3 47
23:30 1021 30.15 850 25.1 16.7 62 57 8.2 46.7
23:35 1021 30.15 850 25.1 16.7 62 57 8.1 46.6
23:40 1021 30.15 850 25.1 16.7 62.1 56 8.1 46.5
23:45 1021 30.15 850 25.1 16.7 62 56 8 46.3
23:50 1021 30.15 850 25.1 16.7 62 56 8.1 46.5
23:55 1021 30.15 850 25.1 16.6 61.9 56 8 46.4
24:00 1021 30.15 850 25.1 16.6 61.9 57 8 46.5